createdAt,value
2023-11-30T05:04:29.286Z,-1.48
2023-11-30T05:08:31.906Z,-1.39
2023-11-30T05:12:34.499Z,-1.43
2023-11-30T05:16:37.105Z,-1.48
2023-11-30T05:20:41.694Z,-1.51
2023-11-30T05:24:44.391Z,-1.45
2023-11-30T05:28:46.992Z,-1.38
2023-11-30T05:32:49.689Z,-1.31
2023-11-30T05:36:53.636Z,-1.32
2023-11-30T05:40:56.635Z,-1.29
2023-11-30T05:44:59.399Z,-1.22
2023-11-30T05:49:02.178Z,-1.20
2023-11-30T05:53:06.853Z,-1.22
2023-11-30T05:57:09.469Z,-1.23
2023-11-30T06:01:12.086Z,-1.18
2023-11-30T06:05:15.018Z,-1.14
2023-11-30T06:09:19.578Z,-1.08
2023-11-30T06:13:25.205Z,-1.03
2023-11-30T06:17:27.826Z,-0.92
2023-11-30T06:21:30.568Z,-0.88
2023-11-30T06:25:34.546Z,-0.87
2023-11-30T06:29:37.138Z,-0.99
2023-11-30T06:33:39.729Z,-1.06
2023-11-30T06:37:42.342Z,-1.09
2023-11-30T06:41:52.338Z,-1.18
2023-11-30T06:45:56.137Z,-1.20
2023-11-30T06:49:58.916Z,-1.12
2023-11-30T06:54:01.614Z,-1.02
2023-11-30T06:58:05.944Z,-0.89
2023-11-30T07:02:08.608Z,-0.73
2023-11-30T07:06:11.541Z,-0.64
2023-11-30T07:10:14.453Z,-0.64
2023-11-30T07:14:18.439Z,-0.63
2023-11-30T07:18:21.228Z,-0.59
2023-11-30T07:22:26.022Z,-0.59
2023-11-30T07:26:28.825Z,-0.60
2023-11-30T07:30:32.801Z,-0.47
2023-11-30T07:34:36.772Z,-0.46
2023-11-30T07:38:39.567Z,-0.42
2023-11-30T07:42:43.717Z,-0.30
2023-11-30T07:46:48.015Z,-0.11
2023-11-30T07:50:51.957Z,0.09
2023-11-30T07:54:54.557Z,0.26
2023-11-30T07:58:57.120Z,0.26
2023-11-30T08:03:02.826Z,0.25
2023-11-30T08:07:06.139Z,0.37
2023-11-30T08:11:09.032Z,0.45
2023-11-30T08:15:12.010Z,0.37
2023-11-30T08:19:15.964Z,0.31
2023-11-30T08:23:19.804Z,0.38
2023-11-30T08:27:23.973Z,0.51
2023-11-30T08:31:26.626Z,0.58
2023-11-30T08:35:30.590Z,0.59
2023-11-30T08:39:33.220Z,0.73
2023-11-30T08:43:35.996Z,0.79
2023-11-30T08:47:43.146Z,0.74
2023-11-30T08:51:47.335Z,0.70
2023-11-30T08:55:50.067Z,0.65
2023-11-30T08:59:52.673Z,0.62
2023-11-30T09:03:55.358Z,0.55
2023-11-30T09:07:59.349Z,0.74
2023-11-30T09:12:03.295Z,0.98
2023-11-30T09:16:06.602Z,0.99
2023-11-30T09:20:10.276Z,0.94
2023-11-30T09:24:16.268Z,1.09
2023-11-30T09:28:19.555Z,1.12
2023-11-30T09:32:23.452Z,1.08
2023-11-30T09:36:26.291Z,1.10
2023-11-30T09:40:30.400Z,1.18
2023-11-30T09:44:33.096Z,1.20
2023-11-30T09:48:35.781Z,1.23
2023-11-30T09:52:38.581Z,1.30
2023-11-30T09:56:42.585Z,1.46
2023-11-30T10:00:45.285Z,1.59
2023-11-30T10:04:48.037Z,1.75
2023-11-30T10:08:50.627Z,1.86
2023-11-30T10:12:55.594Z,1.99
2023-11-30T10:16:58.253Z,1.95
2023-11-30T10:21:01.527Z,1.82
2023-11-30T10:25:05.534Z,1.83
2023-11-30T10:29:10.581Z,1.94
2023-11-30T10:33:15.328Z,2.05
2023-11-30T10:37:20.910Z,2.28
2023-11-30T10:41:26.943Z,2.52
2023-11-30T10:45:34.434Z,2.67
2023-11-30T10:49:38.586Z,2.76
2023-11-30T10:53:53.634Z,2.91
2023-11-30T10:57:58.501Z,2.77
2023-11-30T11:02:06.495Z,2.63
2023-11-30T11:06:11.472Z,2.75
2023-11-30T11:10:23.138Z,2.85
2023-11-30T11:14:31.657Z,2.70
2023-11-30T11:18:37.129Z,2.58
2023-11-30T11:22:42.120Z,2.42
2023-11-30T11:26:46.493Z,2.33
2023-11-30T11:30:50.392Z,2.56
2023-11-30T11:34:55.097Z,2.45
2023-11-30T11:38:57.834Z,2.43
2023-11-30T11:43:00.900Z,2.52
2023-11-30T11:47:04.365Z,2.51
2023-11-30T11:51:08.548Z,2.78
2023-11-30T11:55:14.588Z,2.64
2023-11-30T11:59:24.606Z,2.63
2023-11-30T12:03:29.785Z,2.60
2023-11-30T12:07:33.904Z,2.56
2023-11-30T12:11:36.521Z,2.59
2023-11-30T12:15:39.252Z,2.55
2023-11-30T12:19:41.882Z,2.44
2023-11-30T12:23:45.819Z,2.23
2023-11-30T12:27:48.463Z,2.41
2023-11-30T12:31:52.814Z,2.64
2023-11-30T12:35:56.158Z,2.62
2023-11-30T12:40:00.729Z,2.65
2023-11-30T12:44:05.652Z,2.57
2023-11-30T12:48:09.226Z,2.53
2023-11-30T12:52:12.047Z,2.50
2023-11-30T12:56:16.000Z,2.33
2023-11-30T13:00:21.761Z,2.32
2023-11-30T13:04:25.550Z,2.19
2023-11-30T13:08:28.193Z,2.08
2023-11-30T13:12:32.657Z,2.00
2023-11-30T13:16:35.580Z,1.89
2023-11-30T13:20:38.139Z,1.76
2023-11-30T13:24:43.493Z,1.69
2023-11-30T13:28:51.980Z,1.63
2023-11-30T13:32:56.774Z,1.24
2023-11-30T13:36:59.470Z,0.78
2023-11-30T13:41:02.145Z,0.58
2023-11-30T13:45:07.306Z,0.41
2023-11-30T13:49:14.674Z,0.37
2023-11-30T13:53:18.235Z,0.33
2023-11-30T13:57:20.917Z,0.39
2023-11-30T14:01:25.009Z,0.30
2023-11-30T14:05:28.564Z,0.18
2023-11-30T14:09:32.791Z,-0.03
2023-11-30T14:13:35.493Z,-0.15
2023-11-30T14:17:39.710Z,-0.38
2023-11-30T14:21:42.395Z,-0.62
2023-11-30T14:25:45.036Z,-0.71
2023-11-30T14:29:47.631Z,-0.80
2023-11-30T14:33:51.656Z,-1.08
2023-11-30T14:37:54.610Z,-1.10
2023-11-30T14:41:57.599Z,-1.14
2023-11-30T14:46:00.573Z,-0.96
2023-11-30T14:50:05.072Z,-0.80
2023-11-30T14:54:07.683Z,-0.69
2023-11-30T14:58:10.576Z,-0.62
2023-11-30T15:02:13.309Z,-0.72
2023-11-30T15:06:17.766Z,-0.78
2023-11-30T15:10:21.636Z,-0.89
2023-11-30T15:14:24.315Z,-1.07
2023-11-30T15:18:28.146Z,-1.20
2023-11-30T15:22:32.131Z,-1.31
2023-11-30T15:26:34.735Z,-1.35
2023-11-30T15:30:37.496Z,-1.36
2023-11-30T15:34:41.176Z,-1.46
2023-11-30T15:38:46.256Z,-1.62
2023-11-30T15:42:48.911Z,-1.70
2023-11-30T15:46:51.583Z,-1.83
2023-11-30T15:50:54.231Z,-1.93
2023-11-30T15:54:58.261Z,-2.04
2023-11-30T15:59:01.012Z,-2.22
2023-11-30T16:03:05.629Z,-2.21
2023-11-30T16:07:08.255Z,-2.19
2023-11-30T16:11:16.721Z,-2.22
2023-11-30T16:15:19.670Z,-2.36
2023-11-30T16:19:23.296Z,-2.44
2023-11-30T16:23:25.957Z,-2.41
2023-11-30T16:27:30.556Z,-2.35
2023-11-30T16:31:33.324Z,-2.36
2023-11-30T16:35:36.046Z,-2.47
2023-11-30T16:39:38.703Z,-2.52
2023-11-30T16:43:42.717Z,-2.52
2023-11-30T16:47:45.930Z,-2.59
2023-11-30T16:51:52.665Z,-2.71
2023-11-30T16:55:58.402Z,-2.68
2023-11-30T17:00:04.232Z,-2.59
2023-11-30T17:04:07.069Z,-2.57
2023-11-30T17:08:09.757Z,-2.45
2023-11-30T17:12:12.423Z,-2.32
2023-11-30T17:16:16.428Z,-2.26
2023-11-30T17:20:20.555Z,-2.15
2023-11-30T17:24:23.203Z,-2.17
2023-11-30T17:28:26.025Z,-2.33
2023-11-30T17:32:30.029Z,-2.31
2023-11-30T17:36:32.816Z,-2.20
2023-11-30T17:40:35.458Z,-2.28
2023-11-30T17:44:38.159Z,-2.33
2023-11-30T17:48:42.133Z,-2.31
2023-11-30T17:52:44.836Z,-2.29
2023-11-30T17:56:47.711Z,-2.31
2023-11-30T18:00:51.438Z,-2.28
2023-11-30T18:04:55.693Z,-2.25
2023-11-30T18:08:58.270Z,-2.21
2023-11-30T18:13:00.987Z,-2.21
2023-11-30T18:17:04.453Z,-2.21
2023-11-30T18:21:08.749Z,-2.33
2023-11-30T18:25:11.445Z,-2.36
2023-11-30T18:29:14.194Z,-2.25
2023-11-30T18:33:16.880Z,-2.16
2023-11-30T18:37:21.053Z,-2.26
2023-11-30T18:41:23.653Z,-2.45
2023-11-30T18:45:27.551Z,-2.58
2023-11-30T18:49:30.207Z,-2.71
2023-11-30T18:53:34.564Z,-2.85
2023-11-30T18:57:37.610Z,-2.98
2023-11-30T19:01:40.358Z,-2.99
2023-11-30T19:05:42.977Z,-3.15
2023-11-30T19:09:47.231Z,-3.22
2023-11-30T19:13:50.131Z,-3.33
2023-11-30T19:17:52.784Z,-3.38
2023-11-30T19:21:55.498Z,-3.39
2023-11-30T19:26:00.509Z,-3.43
2023-11-30T19:30:03.215Z,-3.62
2023-11-30T19:34:06.067Z,-3.63
2023-11-30T19:38:08.721Z,-3.62
2023-11-30T19:42:12.653Z,-3.63
2023-11-30T19:46:16.332Z,-3.77
2023-11-30T19:50:19.014Z,-3.98
2023-11-30T19:54:21.713Z,-4.16
2023-11-30T19:58:25.681Z,-4.28
2023-11-30T20:02:28.390Z,-4.31
2023-11-30T20:06:31.063Z,-4.30
2023-11-30T20:10:33.809Z,-4.37
2023-11-30T20:14:37.745Z,-4.42
2023-11-30T20:18:40.448Z,-4.29
2023-11-30T20:22:43.159Z,-4.28
2023-11-30T20:26:47.067Z,-4.27
2023-11-30T20:30:52.511Z,-4.36
2023-11-30T20:34:55.165Z,-4.45
2023-11-30T20:38:57.875Z,-4.30
2023-11-30T20:43:00.531Z,-4.36
2023-11-30T20:47:04.719Z,-4.35
2023-11-30T20:51:07.646Z,-4.15
2023-11-30T20:55:10.386Z,-3.83
2023-11-30T20:59:13.178Z,-3.71
2023-11-30T21:03:17.211Z,-3.51
2023-11-30T21:07:19.876Z,-3.43
2023-11-30T21:11:22.520Z,-3.10
2023-11-30T21:15:25.253Z,-2.87
2023-11-30T21:19:29.181Z,-2.82
2023-11-30T21:23:31.761Z,-2.77
2023-11-30T21:27:34.917Z,-2.77
2023-11-30T21:31:39.640Z,-2.78
2023-11-30T21:35:43.658Z,-2.71
2023-11-30T21:39:46.264Z,-2.68
2023-11-30T21:43:48.983Z,-2.66
2023-11-30T21:47:51.616Z,-2.74
2023-11-30T21:51:55.605Z,-2.65
2023-11-30T21:55:58.222Z,-2.51
2023-11-30T22:00:01.002Z,-2.38
